Time;durP1;ratioP1;P1;durP2;ratioP2;P2;SDS_P1;SDS_P2;PMS_P1;PMS_P2;Temp;Humidity;BMP_temperature;BMP_pressure;BME280_temperature;BME280_humidity;BME280_pressure;Samples;Min_cycle;Max_cycle;Signal;HPM_P1;HPM_P2
2023/07/12 00:00:53;;;;;;;4.25;1.60;;;18.20;99.90;;;;;;5053301;28;20035;-45
2023/07/12 00:03:20;;;;;;;7.07;1.30;;;18.10;99.90;;;;;;5053219;28;20025;-45
2023/07/12 00:05:47;;;;;;;3.45;0.98;;;18.10;99.90;;;;;;5053025;28;20021;-52
2023/07/12 00:08:24;;;;;;;4.13;1.48;;;18.20;99.90;;;;;;5053251;28;20036;-46
2023/07/12 00:10:51;;;;;;;3.67;1.35;;;18.20;99.90;;;;;;5053240;28;20029;-53
2023/07/12 00:13:17;;;;;;;5.60;1.13;;;18.10;99.90;;;;;;5052816;28;20509;-52
2023/07/12 00:15:46;;;;;;;4.32;1.55;;;18.20;99.90;;;;;;5052408;28;20049;-42
2023/07/12 00:18:14;;;;;;;1.75;1.40;;;18.20;99.90;;;;;;5053061;28;20389;-40
2023/07/12 00:20:41;;;;;;;0.88;0.82;;;18.20;99.90;;;;;;5059551;28;20107;-47
2023/07/12 00:23:09;;;;;;;3.40;1.15;;;18.10;99.90;;;;;;5071213;28;20115;-48
2023/07/12 00:25:35;;;;;;;4.05;1.30;;;18.20;99.90;;;;;;5064818;28;20104;-46
2023/07/12 00:28:01;;;;;;;4.13;1.67;;;18.20;99.90;;;;;;5054372;28;20103;-43
2023/07/12 00:30:34;;;;;;;3.05;1.30;;;18.20;99.90;;;;;;5072867;28;20104;-48
2023/07/12 00:33:02;;;;;;;3.05;1.20;;;18.20;99.90;;;;;;5061938;28;20527;-46
2023/07/12 00:35:29;;;;;;;3.13;1.27;;;18.20;99.90;;;;;;5055852;28;20488;-48
2023/07/12 00:37:57;;;;;;;7.32;1.60;;;18.20;99.90;;;;;;5072788;28;20499;-49
2023/07/12 00:40:43;;;;;;;6.10;1.55;;;18.20;99.90;;;;;;5072790;28;20025;-46
2023/07/12 00:43:17;;;;;;;4.10;1.52;;;18.20;99.90;;;;;;5068614;28;20020;-50
2023/07/12 00:45:45;;;;;;;3.78;1.05;;;18.20;99.90;;;;;;5072751;28;20206;-44
2023/07/12 00:48:12;;;;;;;7.40;1.70;;;18.20;99.90;;;;;;5065872;28;20028;-51
2023/07/12 00:50:38;;;;;;;3.72;0.95;;;18.20;99.90;;;;;;5072720;28;20567;-52
2023/07/12 00:53:04;;;;;;;4.85;1.13;;;18.20;99.90;;;;;;5069579;28;20550;-53
2023/07/12 00:55:59;;;;;;;4.25;1.27;;;18.10;99.90;;;;;;5072651;28;20025;-49
2023/07/12 00:58:31;;;;;;;5.07;1.77;;;18.20;99.90;;;;;;5068170;28;20051;-52
2023/07/12 01:00:59;;;;;;;3.55;1.13;;;18.10;99.90;;;;;;5072609;28;20032;-52
2023/07/12 01:03:29;;;;;;;7.85;1.55;;;18.20;99.90;;;;;;5070856;28;20461;-53
2023/07/12 01:05:55;;;;;;;6.80;1.50;;;18.10;99.90;;;;;;5071418;28;20530;-51
2023/07/12 01:08:21;;;;;;;9.40;1.45;;;18.10;99.90;;;;;;5069838;28;20029;-48
2023/07/12 01:10:47;;;;;;;2.33;1.40;;;18.10;99.90;;;;;;5072521;28;20029;-50
2023/07/12 01:13:13;;;;;;;3.25;1.92;;;18.10;99.90;;;;;;5067852;28;20041;-63
2023/07/12 01:15:39;;;;;;;3.65;1.48;;;18.10;99.90;;;;;;5072420;28;20365;-54
2023/07/12 01:18:06;;;;;;;2.22;1.45;;;18.10;99.90;;;;;;5072414;28;20371;-53
2023/07/12 01:20:38;;;;;;;6.72;1.65;;;18.10;99.90;;;;;;5071224;28;20021;-49
2023/07/12 01:23:04;;;;;;;7.82;1.67;;;18.10;99.90;;;;;;5072377;28;20039;-49
2023/07/12 01:25:40;;;;;;;3.83;1.73;;;18.00;99.90;;;;;;5072547;28;20021;-47
2023/07/12 01:28:06;;;;;;;2.50;1.60;;;18.00;99.90;;;;;;5054519;28;20020;-42
2023/07/12 01:30:32;;;;;;;5.68;1.45;;;17.90;99.90;;;;;;5072259;28;20108;-45
2023/07/12 01:32:58;;;;;;;7.63;1.30;;;17.90;99.90;;;;;;5071153;28;20044;-41
2023/07/12 01:35:23;;;;;;;5.72;1.77;;;17.80;99.90;;;;;;5071233;28;20024;-41
2023/07/12 01:37:49;;;;;;;7.38;1.80;;;17.80;99.90;;;;;;5066048;28;20485;-39
2023/07/12 01:40:15;;;;;;;6.15;1.58;;;17.70;99.90;;;;;;5067890;28;20020;-38
2023/07/12 01:42:41;;;;;;;5.53;1.90;;;17.70;99.90;;;;;;5072091;28;20035;-39
2023/07/12 01:45:07;;;;;;;7.40;1.60;;;17.70;99.90;;;;;;5070121;28;20060;-38
2023/07/12 01:47:33;;;;;;;12.15;1.70;;;17.60;99.90;;;;;;5072188;28;20056;-38
2023/07/12 01:49:58;;;;;;;5.55;1.60;;;17.50;99.90;;;;;;5070719;28;20492;-39
2023/07/12 01:52:24;;;;;;;6.32;2.00;;;17.50;99.90;;;;;;5072278;28;20115;-38
2023/07/12 01:54:50;;;;;;;8.15;2.03;;;17.60;99.90;;;;;;5072315;28;20051;-39
2023/07/12 01:57:15;;;;;;;9.20;1.70;;;17.50;99.90;;;;;;5066709;28;20512;-38
2023/07/12 01:59:41;;;;;;;5.70;1.73;;;17.50;99.90;;;;;;5064677;28;20041;-41
2023/07/12 02:02:08;;;;;;;9.75;1.85;;;17.50;99.90;;;;;;5072476;28;20472;-42
2023/07/12 02:04:34;;;;;;;11.43;2.72;;;17.50;99.90;;;;;;5075553;28;20086;-40
2023/07/12 02:07:03;;;;;;;9.60;2.30;;;17.40;99.90;;;;;;5074369;28;20046;-39
2023/07/12 02:09:35;;;;;;;6.25;1.95;;;17.40;99.90;;;;;;5069757;28;20427;-40
2023/07/12 02:12:02;;;;;;;7.13;1.80;;;17.40;99.90;;;;;;5070357;28;20493;-40
2023/07/12 02:14:27;;;;;;;5.90;1.75;;;17.40;99.90;;;;;;5073795;28;20028;-43
2023/07/12 02:16:53;;;;;;;4.78;1.38;;;17.30;99.90;;;;;;5075181;28;20024;-43
2023/07/12 02:19:19;;;;;;;10.10;1.73;;;17.30;99.90;;;;;;5067525;28;20024;-41
2023/07/12 02:21:45;;;;;;;8.55;3.05;;;17.30;99.90;;;;;;5075494;28;20428;-41
2023/07/12 02:24:11;;;;;;;9.82;2.08;;;17.30;99.90;;;;;;5075126;28;20028;-42
2023/07/12 02:26:36;;;;;;;8.80;1.85;;;17.30;99.90;;;;;;5064396;28;20075;-43
2023/07/12 02:29:02;;;;;;;7.10;2.45;;;17.20;99.90;;;;;;5055434;28;20037;-41
2023/07/12 02:31:30;;;;;;;11.55;2.65;;;17.20;99.90;;;;;;5072473;28;20550;-42
2023/07/12 02:33:56;;;;;;;11.30;1.90;;;17.20;99.90;;;;;;5066127;28;20025;-43
2023/07/12 02:36:22;;;;;;;10.23;2.95;;;17.20;99.90;;;;;;5074938;28;20104;-43
2023/07/12 02:38:47;;;;;;;5.80;1.92;;;17.10;99.90;;;;;;5074951;28;20036;-40
2023/07/12 02:41:14;;;;;;;6.05;1.85;;;17.20;99.90;;;;;;5057577;28;20473;-60
2023/07/12 02:43:40;;;;;;;4.05;1.85;;;17.20;99.90;;;;;;5069679;28;20476;-48
2023/07/12 02:46:06;;;;;;;7.13;1.88;;;17.20;99.90;;;;;;5072276;28;20074;-42
2023/07/12 02:48:31;;;;;;;13.30;2.97;;;17.20;99.90;;;;;;5074675;28;20082;-40
2023/07/12 02:50:57;;;;;;;6.70;1.75;;;17.10;99.90;;;;;;5072279;28;20441;-41
2023/07/12 02:53:23;;;;;;;5.50;1.67;;;17.20;99.90;;;;;;5074809;28;20029;-45
2023/07/12 02:55:49;;;;;;;7.40;2.10;;;17.20;99.90;;;;;;5053942;28;20063;-38
2023/07/12 02:58:17;;;;;;;6.35;1.90;;;17.20;99.90;;;;;;5063470;28;20021;-44
2023/07/12 03:00:42;;;;;;;8.90;2.08;;;17.10;99.90;;;;;;5074541;28;20509;-44
2023/07/12 03:03:09;;;;;;;8.02;2.40;;;17.10;99.90;;;;;;5074330;28;20035;-41
2023/07/12 03:05:37;;;;;;;7.32;2.20;;;17.10;99.90;;;;;;5074428;28;20103;-42
2023/07/12 03:08:03;;;;;;;6.22;2.13;;;17.20;99.90;;;;;;5073214;28;20024;-44
2023/07/12 03:10:30;;;;;;;4.40;2.30;;;17.20;99.90;;;;;;5071152;28;20506;-42
2023/07/12 03:12:55;;;;;;;5.90;1.87;;;17.20;99.90;;;;;;5069791;28;20041;-44
2023/07/12 03:15:21;;;;;;;6.75;2.38;;;17.20;99.90;;;;;;5074159;28;20031;-44
2023/07/12 03:17:47;;;;;;;16.65;3.10;;;17.10;99.90;;;;;;5063788;28;20029;-45
2023/07/12 03:20:13;;;;;;;6.47;2.80;;;17.10;99.90;;;;;;5053693;28;20104;-49
2023/07/12 03:22:38;;;;;;;8.30;3.05;;;17.20;99.90;;;;;;5074020;28;20032;-40
2023/07/12 03:25:04;;;;;;;8.40;3.00;;;17.20;99.90;;;;;;5073772;28;20032;-40
2023/07/12 03:27:30;;;;;;;3.88;2.97;;;17.20;99.90;;;;;;5064620;28;20481;-45
2023/07/12 03:29:56;;;;;;;7.82;3.85;;;17.20;99.90;;;;;;5071392;28;20097;-46
2023/07/12 03:32:24;;;;;;;13.82;3.92;;;17.30;99.90;;;;;;5073760;28;20036;-47
2023/07/12 03:34:49;;;;;;;;;;;17.30;99.90;;;;;;5071787;28;20020;-47
2023/07/12 03:37:15;;;;;;;7.97;3.15;;;17.30;99.90;;;;;;5072669;28;19931;-45
2023/07/12 03:39:40;;;;;;;16.40;3.97;;;17.20;99.90;;;;;;5067211;28;20028;-44
2023/07/12 03:42:06;;;;;;;10.48;2.63;;;17.20;99.90;;;;;;5069607;28;20507;-42
2023/07/12 03:44:32;;;;;;;8.15;2.97;;;17.20;99.90;;;;;;5073686;28;20032;-48
2023/07/12 03:46:57;;;;;;;12.95;2.67;;;17.20;99.90;;;;;;5065052;28;20485;-40
2023/07/12 03:49:23;;;;;;;11.80;2.83;;;17.20;99.90;;;;;;5073433;28;20396;-47
2023/07/12 03:51:49;;;;;;;9.23;3.10;;;17.20;99.90;;;;;;5070567;28;20393;-44
2023/07/12 03:54:14;;;;;;;10.73;2.72;;;17.10;99.90;;;;;;5073326;28;20533;-49
2023/07/12 03:56:40;;;;;;;11.52;2.67;;;17.20;99.90;;;;;;5069259;28;20530;-40
2023/07/12 03:59:08;;;;;;;19.10;4.07;;;17.10;99.90;;;;;;5068871;28;20524;-42
2023/07/12 04:01:34;;;;;;;6.88;2.95;;;17.10;99.90;;;;;;5073075;28;20028;-47
2023/07/12 04:04:00;;;;;;;13.98;2.85;;;17.10;99.90;;;;;;5071545;28;20070;-42
2023/07/12 04:06:26;;;;;;;6.90;2.63;;;17.10;99.90;;;;;;5067954;28;20484;-50
2023/07/12 04:08:51;;;;;;;8.70;3.45;;;17.10;99.90;;;;;;5073336;28;20028;-68
2023/07/12 04:11:24;;;;;;;6.75;2.47;;;17.10;99.90;;;;;;5073140;28;20078;-50
2023/07/12 04:13:49;;;;;;;7.00;2.72;;;17.10;99.90;;;;;;5067621;28;20131;-46
2023/07/12 04:16:15;;;;;;;9.65;2.63;;;17.10;99.90;;;;;;5073103;28;20048;-49
2023/07/12 04:18:41;;;;;;;9.38;3.42;;;17.10;99.90;;;;;;5065411;28;20020;-50
2023/07/12 04:21:07;;;;;;;5.03;2.60;;;17.10;99.90;;;;;;5070036;28;20032;-45
2023/07/12 04:23:33;;;;;;;5.55;2.75;;;17.10;99.90;;;;;;5072757;28;20036;-43
2023/07/12 04:26:04;;;;;;;11.18;3.65;;;17.10;99.90;;;;;;5071353;28;20034;-48
2023/07/12 04:28:31;;;;;;;8.35;2.67;;;17.10;99.90;;;;;;5060582;28;20025;-47
2023/07/12 04:31:03;;;;;;;10.07;4.10;;;17.10;99.90;;;;;;5073089;28;20056;-43
2023/07/12 04:33:29;;;;;;;9.00;2.83;;;17.10;99.90;;;;;;5072840;28;20107;-45
2023/07/12 04:35:55;;;;;;;8.15;3.25;;;17.10;99.90;;;;;;5072818;28;20059;-72
2023/07/12 04:38:20;;;;;;;9.18;4.57;;;17.20;99.90;;;;;;5069519;28;20056;-43
2023/07/12 04:40:55;;;;;;;10.23;3.45;;;17.10;99.90;;;;;;5072768;28;20036;-46
2023/07/12 04:43:22;;;;;;;10.25;4.78;;;17.10;99.90;;;;;;5057623;28;20100;-49
2023/07/12 04:45:48;;;;;;;7.90;4.28;;;17.20;99.90;;;;;;5052697;28;20497;-42
2023/07/12 04:48:14;;;;;;;15.25;5.20;;;17.10;99.90;;;;;;5052879;28;20148;-49
2023/07/12 04:50:40;;;;;;;13.63;4.60;;;17.10;99.90;;;;;;5067945;28;20025;-53
2023/07/12 04:53:05;;;;;;;12.93;4.50;;;17.10;99.90;;;;;;5071578;28;20043;-52
2023/07/12 04:55:31;;;;;;;14.52;3.97;;;17.10;99.90;;;;;;5070370;28;20025;-42
2023/07/12 04:57:57;;;;;;;14.50;4.35;;;17.10;99.90;;;;;;5065849;28;20469;-57
2023/07/12 05:00:23;;;;;;;7.70;4.47;;;17.10;99.90;;;;;;5068320;28;20081;-52
2023/07/12 05:02:50;;;;;;;8.52;4.35;;;17.10;99.90;;;;;;5072614;28;20028;-49
2023/07/12 05:05:16;;;;;;;9.48;4.30;;;17.20;99.90;;;;;;5066970;28;20103;-44
2023/07/12 05:07:42;;;;;;;10.68;3.88;;;17.30;99.90;;;;;;5038582;28;20533;-50
2023/07/12 05:10:09;;;;;;;8.95;4.22;;;17.30;99.90;;;;;;5052453;28;20055;-51
2023/07/12 05:12:35;;;;;;;9.25;2.90;;;17.30;99.90;;;;;;5044828;28;20050;-46
2023/07/12 05:15:02;;;;;;;6.45;3.33;;;17.40;99.90;;;;;;5032501;28;20026;-43
2023/07/12 05:17:28;;;;;;;9.35;3.70;;;17.50;99.90;;;;;;5032399;28;20029;-44
2023/07/12 05:19:54;;;;;;;12.82;4.05;;;17.50;99.90;;;;;;5036758;28;20021;-48
2023/07/12 05:22:20;;;;;;;10.98;4.57;;;17.50;99.90;;;;;;5052368;28;20033;-47
2023/07/12 05:24:46;;;;;;;12.85;4.03;;;17.50;99.90;;;;;;5051935;28;20556;-49
2023/07/12 05:27:11;;;;;;;12.57;3.50;;;17.50;99.90;;;;;;5052233;28;20013;-46
2023/07/12 05:29:37;;;;;;;23.00;4.47;;;17.50;99.90;;;;;;5052583;28;20040;-51
2023/07/12 05:32:03;;;;;;;9.00;3.45;;;17.50;99.90;;;;;;5039104;28;20021;-43
2023/07/12 05:34:29;;;;;;;15.25;4.15;;;17.50;99.90;;;;;;5034012;28;20026;-74
2023/07/12 05:36:55;;;;;;;12.15;3.83;;;17.50;99.90;;;;;;5039203;28;20025;-43
2023/07/12 05:39:20;;;;;;;8.73;3.55;;;17.60;99.90;;;;;;5055999;28;20017;-65
2023/07/12 05:41:46;;;;;;;12.00;4.28;;;17.60;99.90;;;;;;5055908;28;20024;-42
2023/07/12 05:44:12;;;;;;;7.88;3.60;;;17.70;99.90;;;;;;5055982;28;20488;-53
2023/07/12 05:46:37;;;;;;;8.60;4.22;;;17.70;99.90;;;;;;5054599;28;20037;-51
2023/07/12 05:49:03;;;;;;;8.60;3.83;;;17.70;99.90;;;;;;5054599;28;20021;-42
2023/07/12 05:51:29;;;;;;;8.50;3.60;;;17.70;99.90;;;;;;5055666;28;20020;-46
2023/07/12 05:53:55;;;;;;;8.95;4.07;;;17.80;99.90;;;;;;5055028;28;20035;-44
2023/07/12 05:56:20;;;;;;;13.80;3.35;;;17.80;99.90;;;;;;5055692;28;20025;-51
2023/07/12 05:58:46;;;;;;;14.48;4.18;;;17.80;99.90;;;;;;5055920;28;20051;-42
2023/07/12 06:01:12;;;;;;;23.02;4.20;;;17.90;99.90;;;;;;5048735;28;20017;-52
2023/07/12 06:03:38;;;;;;;10.85;3.60;;;17.90;99.90;;;;;;5065522;28;20047;-41
2023/07/12 06:06:07;;;;;;;7.82;4.00;;;18.00;99.90;;;;;;5075423;28;20017;-39
2023/07/12 06:08:33;;;;;;;12.20;4.00;;;18.10;99.90;;;;;;5072519;28;20423;-44
2023/07/12 06:10:59;;;;;;;8.52;4.30;;;18.10;99.90;;;;;;5063963;28;20079;-52
2023/07/12 06:13:25;;;;;;;9.13;3.47;;;18.10;99.90;;;;;;5052925;28;20556;-40
2023/07/12 06:15:51;;;;;;;7.00;3.63;;;18.10;99.90;;;;;;5057792;28;20063;-52
2023/07/12 06:18:16;;;;;;;12.68;4.10;;;18.10;99.90;;;;;;5055779;28;20036;-46
2023/07/12 06:20:42;;;;;;;7.60;3.53;;;18.10;99.90;;;;;;5054645;28;20359;-47
2023/07/12 06:23:08;;;;;;;13.20;4.25;;;18.10;99.90;;;;;;5059805;28;20059;-57
2023/07/12 06:25:33;;;;;;;10.30;3.40;;;18.00;99.90;;;;;;5054922;28;20440;-52
2023/07/12 06:27:59;;;;;;;10.82;3.67;;;18.10;99.90;;;;;;5046147;28;20036;-55
2023/07/12 06:30:25;;;;;;;8.45;3.45;;;18.20;99.90;;;;;;5035086;28;20029;-52
2023/07/12 06:32:50;;;;;;;14.20;3.70;;;18.30;99.90;;;;;;5044050;28;20032;-52
2023/07/12 06:35:16;;;;;;;10.45;3.20;;;18.50;99.90;;;;;;5070528;28;20025;-52
2023/07/12 06:37:42;;;;;;;11.43;4.03;;;18.60;99.90;;;;;;5071860;28;20037;-53
2023/07/12 06:40:08;;;;;;;10.45;2.60;;;18.80;99.90;;;;;;5074852;28;20021;-52
2023/07/12 06:42:34;;;;;;;16.58;3.40;;;18.80;99.90;;;;;;5051162;28;20108;-54
2023/07/12 06:44:59;;;;;;;10.50;2.92;;;18.70;99.90;;;;;;5039401;28;20025;-48
2023/07/12 06:47:25;;;;;;;10.38;2.85;;;18.90;99.90;;;;;;5042958;28;20382;-45
2023/07/12 06:49:51;;;;;;;12.65;3.15;;;19.00;99.90;;;;;;5054634;28;20026;-42
2023/07/12 06:52:17;;;;;;;9.25;3.17;;;19.50;99.90;;;;;;5041722;28;20527;-53
2023/07/12 06:54:43;;;;;;;14.75;3.08;;;20.30;99.90;;;;;;5034432;28;20025;-53
2023/07/12 06:57:08;;;;;;;7.30;2.15;;;20.60;99.90;;;;;;5041247;28;20418;-56
2023/07/12 06:59:34;;;;;;;5.32;2.03;;;21.80;99.90;;;;;;5054529;28;20059;-49
2023/07/12 07:02:00;;;;;;;7.15;2.25;;;22.80;99.90;;;;;;5053351;28;20028;-41
2023/07/12 07:04:25;;;;;;;9.85;2.33;;;23.80;99.90;;;;;;5054150;28;20458;-55
2023/07/12 07:06:51;;;;;;;5.15;2.00;;;24.70;99.90;;;;;;5054617;28;20504;-43
2023/07/12 07:09:17;;;;;;;15.82;3.58;;;25.40;99.90;;;;;;5054385;28;20065;-50
2023/07/12 07:11:42;;;;;;;7.10;2.13;;;25.40;99.90;;;;;;5054081;28;20055;-59
2023/07/12 07:14:08;;;;;;;11.57;2.40;;;24.70;99.90;;;;;;5053322;28;20385;-51
2023/07/12 07:16:34;;;;;;;8.43;2.55;;;23.70;99.90;;;;;;5052954;28;20044;-42
2023/07/12 07:18:59;;;;;;;7.00;2.67;;;22.70;99.90;;;;;;5048587;28;20524;-44
2023/07/12 07:21:25;;;;;;;10.40;2.70;;;21.70;99.90;;;;;;5034164;28;20104;-44
2023/07/12 07:23:52;;;;;;;8.85;2.47;;;21.20;99.90;;;;;;5042414;28;20522;-51
2023/07/12 07:26:18;;;;;;;7.95;1.83;;;21.50;99.90;;;;;;5040975;28;20036;-53
2023/07/12 07:28:43;;;;;;;9.85;2.00;;;21.30;99.90;;;;;;5052789;28;20400;-40
2023/07/12 07:31:10;;;;;;;7.00;1.80;;;21.20;99.90;;;;;;5050420;28;20074;-51
2023/07/12 07:33:40;;;;;;;8.50;2.70;;;20.80;99.90;;;;;;5051996;28;20075;-51
2023/07/12 07:36:08;;;;;;;9.32;2.42;;;20.50;99.90;;;;;;5047045;28;20112;-49
2023/07/12 07:38:35;;;;;;;8.80;2.33;;;20.90;99.90;;;;;;5046905;28;20032;-49
2023/07/12 07:41:05;;;;;;;12.05;2.75;;;21.50;99.90;;;;;;5049929;28;20025;-65
2023/07/12 07:43:31;;;;;;;6.07;1.77;;;22.00;99.90;;;;;;5053642;28;20029;-45
2023/07/12 07:45:56;;;;;;;5.55;2.05;;;22.50;99.90;;;;;;5049184;28;20478;-45
2023/07/12 07:48:22;;;;;;;13.77;2.40;;;22.90;99.90;;;;;;5053110;28;20033;-54
2023/07/12 07:50:48;;;;;;;8.98;1.75;;;22.80;99.90;;;;;;5043198;28;20033;-57
2023/07/12 07:53:13;;;;;;;7.22;2.25;;;22.50;99.90;;;;;;5034107;28;20071;-54
2023/07/12 07:55:44;;;;;;;9.18;1.80;;;22.00;99.90;;;;;;5036651;28;20021;-51
2023/07/12 07:58:11;;;;;;;7.20;1.88;;;21.70;99.90;;;;;;5048763;28;20017;-48
2023/07/12 08:00:37;;;;;;;3.22;1.58;;;21.50;99.90;;;;;;5033589;28;20029;-46
2023/07/12 08:03:06;;;;;;;12.75;2.70;;;21.30;99.90;;;;;;5041125;28;20048;-49
2023/07/12 08:05:33;;;;;;;6.78;1.60;;;21.20;99.90;;;;;;5043945;28;20497;-51
2023/07/12 08:07:59;;;;;;;12.47;2.03;;;21.20;99.90;;;;;;5044338;28;20057;-49
2023/07/12 08:10:25;;;;;;;11.90;2.15;;;21.30;99.90;;;;;;5047107;28;20497;-57
2023/07/12 08:12:52;;;;;;;7.10;1.88;;;21.20;99.90;;;;;;5052392;28;20049;-72
2023/07/12 08:15:19;;;;;;;7.25;2.72;;;21.10;99.90;;;;;;5052849;28;20029;-54
2023/07/12 08:17:44;;;;;;;4.22;1.75;;;20.90;99.90;;;;;;5053007;28;20027;-46
2023/07/12 08:20:11;;;;;;;5.95;1.88;;;20.80;99.90;;;;;;5040694;28;20096;-57
2023/07/12 08:22:37;;;;;;;9.63;2.65;;;20.80;99.90;;;;;;5036561;28;20386;-57
2023/07/12 08:25:03;;;;;;;10.35;1.88;;;20.80;99.90;;;;;;5045829;28;20439;-51
2023/07/12 08:27:30;;;;;;;9.57;2.20;;;20.60;99.90;;;;;;5051515;28;20033;-54
2023/07/12 08:29:58;;;;;;;8.75;1.70;;;20.50;99.90;;;;;;5051639;28;20477;-51
2023/07/12 08:32:27;;;;;;;6.47;2.15;;;20.70;99.90;;;;;;5049691;28;20025;-53
2023/07/12 08:34:54;;;;;;;8.57;1.60;;;20.80;99.90;;;;;;5033369;28;20041;-45
2023/07/12 08:37:20;;;;;;;4.77;1.70;;;20.80;99.90;;;;;;5032883;28;20033;-52
2023/07/12 08:39:46;;;;;;;5.90;1.63;;;20.70;99.90;;;;;;5033141;28;20031;-56
2023/07/12 08:42:17;;;;;;;6.88;1.90;;;20.60;99.90;;;;;;5042124;28;20096;-55
2023/07/12 08:44:43;;;;;;;7.90;2.47;;;20.60;99.90;;;;;;5043093;28;20026;-51
2023/07/12 08:47:17;;;;;;;5.65;1.70;;;20.90;99.90;;;;;;5032759;28;20469;-48
2023/07/12 08:49:43;;;;;;;4.28;1.50;;;21.50;99.90;;;;;;5043122;28;20423;-48
2023/07/12 08:52:15;;;;;;;2.13;1.30;;;21.90;99.90;;;;;;5051351;28;20025;-55
2023/07/12 08:54:41;;;;;;;2.42;1.10;;;22.30;99.90;;;;;;5052522;28;20108;-57
2023/07/12 08:57:22;;;;;;;4.53;2.05;;;22.30;99.90;;;;;;5052432;28;20546;-44
2023/07/12 09:00:17;;;;;;;6.75;1.67;;;22.40;99.90;;;;;;5052773;28;20506;-57
2023/07/12 09:02:43;;;;;;;4.53;1.10;;;22.20;99.90;;;;;;5052150;28;20470;-47
2023/07/12 09:05:17;;;;;;;9.30;2.13;;;22.10;99.90;;;;;;5052507;28;20032;-50
2023/07/12 09:08:04;;;;;;;6.20;1.42;;;21.90;99.90;;;;;;5049731;28;20154;-49
2023/07/12 09:10:39;;;;;;;13.02;2.55;;;21.80;99.90;;;;;;5055446;28;20029;-57
2023/07/12 09:13:06;;;;;;;11.05;3.45;;;21.50;99.90;;;;;;5056303;28;20052;-52
2023/07/12 09:15:36;;;;;;;3.95;2.03;;;21.10;99.90;;;;;;5056695;28;20036;-58
2023/07/12 09:18:06;;;;;;;10.10;1.75;;;20.60;99.90;;;;;;5050037;28;20023;-54
2023/07/12 09:20:38;;;;;;;10.90;2.05;;;20.40;99.90;;;;;;5054148;28;20086;-49
2023/07/12 09:23:05;;;;;;;6.15;1.65;;;20.30;99.90;;;;;;5056286;28;20048;-57
2023/07/12 09:25:37;;;;;;;3.03;1.52;;;20.30;99.90;;;;;;5056154;28;20392;-57
2023/07/12 09:28:03;;;;;;;6.32;1.23;;;20.30;99.90;;;;;;5049654;28;20028;-56
2023/07/12 09:30:29;;;;;;;3.70;1.55;;;20.40;99.90;;;;;;5055694;28;20032;-57
2023/07/12 09:32:57;;;;;;;3.25;0.90;;;20.60;99.90;;;;;;5056019;28;20032;-58
2023/07/12 09:35:52;;;;;;;5.72;1.48;;;20.60;99.90;;;;;;5039640;28;20092;-52
2023/07/12 09:38:23;;;;;;;9.10;2.10;;;20.70;99.90;;;;;;5035536;28;20047;-50
2023/07/12 09:40:51;;;;;;;6.22;1.60;;;21.00;99.90;;;;;;5044107;28;20029;-53
2023/07/12 09:43:26;;;;;;;3.97;1.17;;;21.30;99.90;;;;;;5056014;28;20018;-57
2023/07/12 09:46:27;;;;;;;4.13;1.58;;;21.60;99.90;;;;;;5040198;28;20035;-57
2023/07/12 09:49:06;;;;;;;4.93;1.80;;;21.90;99.90;;;;;;5054772;28;20457;-55
2023/07/12 09:52:09;;;;;;;6.68;1.73;;;22.10;99.90;;;;;;5043378;28;20021;-59
2023/07/12 09:55:03;;;;;;;3.83;1.35;;;22.00;99.90;;;;;;5038649;28;20029;-54
2023/07/12 09:57:54;;;;;;;2.90;1.33;;;22.30;99.90;;;;;;5052565;28;20017;-57
2023/07/12 10:00:29;;;;;;;1.42;1.08;;;22.50;99.90;;;;;;5040335;28;20040;-59
2023/07/12 10:02:58;;;;;;;2.65;0.88;;;22.70;99.90;;;;;;5053666;28;20028;-59
2023/07/12 10:05:24;;;;;;;10.45;1.27;;;22.70;99.90;;;;;;5050451;28;20029;-57
2023/07/12 10:08:08;;;;;;;4.03;0.95;;;22.60;99.90;;;;;;5035872;28;20359;-55
2023/07/12 10:11:04;;;;;;;3.50;1.40;;;22.80;99.90;;;;;;5053564;28;20470;-58
2023/07/12 10:13:47;;;;;;;3.55;1.48;;;22.90;99.90;;;;;;5055084;28;20095;-56
2023/07/12 10:16:34;;;;;;;7.28;1.42;;;22.90;99.90;;;;;;5040127;28;20029;-58
2023/07/12 10:19:05;;;;;;;7.60;1.17;;;22.80;99.90;;;;;;5055366;28;20025;-58
2023/07/12 10:21:31;;;;;;;1.83;0.82;;;23.20;99.90;;;;;;5042064;28;20473;-61
2023/07/12 10:24:01;;;;;;;9.07;1.80;;;23.50;99.90;;;;;;5035162;28;20025;-56
2023/07/12 10:26:27;;;;;;;8.52;1.35;;;23.30;99.90;;;;;;5044573;28;20116;-57
2023/07/12 10:29:04;;;;;;;5.97;1.10;;;23.00;99.90;;;;;;5055052;28;20107;-56
2023/07/12 10:32:00;;;;;;;5.20;1.33;;;22.50;99.90;;;;;;5055140;28;20025;-56
2023/07/12 10:34:39;;;;;;;4.00;1.30;;;22.70;99.90;;;;;;5054698;28;20078;-60
2023/07/12 10:37:37;;;;;;;5.55;1.27;;;23.00;99.90;;;;;;5055275;28;20380;-61
2023/07/12 10:40:05;;;;;;;2.92;1.02;;;22.90;99.90;;;;;;5053838;28;20063;-55
2023/07/12 10:42:45;;;;;;;6.40;1.30;;;22.80;99.90;;;;;;5052309;28;20040;-55
2023/07/12 10:45:26;;;;;;;5.55;1.33;;;22.50;99.90;;;;;;5034872;28;20032;-51
2023/07/12 10:47:53;;;;;;;5.63;1.40;;;22.00;99.90;;;;;;5034555;28;20074;-56
2023/07/12 10:50:23;;;;;;;3.55;1.27;;;21.30;99.90;;;;;;5035077;28;20018;-50
2023/07/12 10:53:03;;;;;;;5.78;1.73;;;21.30;99.90;;;;;;5034435;28;20022;-58
2023/07/12 10:55:40;;;;;;;8.52;1.38;;;21.80;99.90;;;;;;5047158;28;20082;-56
2023/07/12 10:58:23;;;;;;;3.88;1.80;;;22.30;99.90;;;;;;5054500;28;20024;-57
2023/07/12 11:00:59;;;;;;;7.75;1.77;;;22.60;99.90;;;;;;5053751;28;20381;-55
2023/07/12 11:03:39;;;;;;;4.68;1.02;;;22.60;99.90;;;;;;5054580;28;20024;-57
2023/07/12 11:06:25;;;;;;;4.13;1.40;;;22.50;99.90;;;;;;5054492;28;20025;-57
2023/07/12 11:09:00;;;;;;;3.63;0.82;;;22.40;99.90;;;;;;5053734;28;20531;-58
2023/07/12 11:11:44;;;;;;;2.00;0.85;;;22.70;99.90;;;;;;5034646;28;20034;-58
2023/07/12 11:14:38;;;;;;;5.93;1.52;;;22.90;99.90;;;;;;5034278;28;20092;-57
2023/07/12 11:17:07;;;;;;;4.57;1.73;;;22.90;99.90;;;;;;5038174;28;20112;-57
2023/07/12 11:19:45;;;;;;;3.83;1.00;;;22.80;99.90;;;;;;5046684;28;20025;-56
2023/07/12 11:22:21;;;;;;;7.85;1.25;;;23.00;99.90;;;;;;5033709;28;20067;-53
2023/07/12 11:25:00;;;;;;;6.23;1.30;;;23.00;99.90;;;;;;5038323;28;20032;-57
2023/07/12 11:27:42;;;;;;;4.95;1.80;;;22.80;99.90;;;;;;5039511;28;20018;-58
2023/07/12 11:30:36;;;;;;;3.13;1.10;;;22.50;99.90;;;;;;5037472;28;20039;-58
2023/07/12 11:33:04;;;;;;;5.47;1.45;;;22.80;99.90;;;;;;5053328;28;20507;-58
2023/07/12 11:35:43;;;;;;;7.57;1.27;;;23.00;99.90;;;;;;5038714;28;20041;-58
2023/07/12 11:38:16;;;;;;;5.57;1.60;;;23.10;99.90;;;;;;5039218;28;20032;-56
2023/07/12 11:40:43;;;;;;;2.45;1.10;;;22.80;99.90;;;;;;5048387;28;20596;-53
2023/07/12 11:43:24;;;;;;;2.55;1.30;;;22.90;99.90;;;;;;5046249;28;20044;-48
2023/07/12 11:45:55;;;;;;;4.55;1.73;;;22.80;99.90;;;;;;5051426;28;20063;-54
2023/07/12 11:48:30;;;;;;;5.40;1.80;;;22.50;99.90;;;;;;5033973;28;20036;-44
2023/07/12 11:51:01;;;;;;;5.82;1.52;;;22.50;99.90;;;;;;5039015;28;20508;-50
2023/07/12 11:53:28;;;;;;;5.72;1.15;;;22.70;99.90;;;;;;5053327;28;20017;-54
2023/07/12 11:55:55;;;;;;;5.55;1.55;;;22.60;99.90;;;;;;5053593;28;20517;-57
2023/07/12 11:58:24;;;;;;;5.10;1.08;;;22.60;99.90;;;;;;5049563;28;20068;-53
2023/07/12 12:00:53;;;;;;;7.55;1.80;;;22.50;99.90;;;;;;5033505;28;20129;-57
2023/07/12 12:03:19;;;;;;;7.38;1.65;;;22.40;99.90;;;;;;5033636;28;20020;-52
2023/07/12 12:05:45;;;;;;;3.30;1.05;;;22.60;99.90;;;;;;5033378;28;20108;-46
2023/07/12 12:08:24;;;;;;;4.20;1.10;;;23.00;99.90;;;;;;5033553;28;20061;-52
2023/07/12 12:10:50;;;;;;;6.60;2.03;;;23.40;99.90;;;;;;5035009;28;20032;-51
2023/07/12 12:13:18;;;;;;;6.68;1.85;;;23.40;99.90;;;;;;5053145;28;20087;-56
2023/07/12 12:15:48;;;;;;;9.20;1.73;;;23.00;99.90;;;;;;5053069;28;20382;-56
2023/07/12 12:18:19;;;;;;;5.63;1.30;;;22.30;99.90;;;;;;5045549;28;20112;-57
2023/07/12 12:21:14;;;;;;;4.00;2.10;;;22.00;99.90;;;;;;5050983;28;20052;-70
2023/07/12 12:23:42;;;;;;;5.65;1.35;;;22.10;99.90;;;;;;5049506;28;20116;-57
2023/07/12 12:26:15;;;;;;;;;;;22.30;99.90;;;;;;5037968;28;20025;-56
2023/07/12 12:28:42;;;;;;;2.95;1.27;;;22.40;99.90;;;;;;5039405;28;19952;-58
2023/07/12 12:31:11;;;;;;;1.70;1.02;;;22.30;99.90;;;;;;5046445;28;20036;-55
2023/07/12 12:33:48;;;;;;;5.28;1.75;;;22.10;99.90;;;;;;5052621;28;20104;-70
2023/07/12 12:36:28;;;;;;;2.47;1.38;;;22.10;99.90;;;;;;5053145;28;20024;-59
2023/07/12 12:39:05;;;;;;;6.13;1.20;;;22.00;99.90;;;;;;5051284;28;20064;-56
2023/07/12 12:41:40;;;;;;;15.32;3.90;;;22.30;99.90;;;;;;5052010;28;20021;-57
2023/07/12 12:44:15;;;;;;;2.40;1.25;;;22.60;99.90;;;;;;5051152;28;20096;-57
2023/07/12 12:46:42;;;;;;;7.68;1.52;;;22.70;99.90;;;;;;5052675;28;20036;-55
2023/07/12 12:49:28;;;;;;;3.40;0.90;;;22.80;99.90;;;;;;5052989;28;20107;-65
2023/07/12 12:51:57;;;;;;;6.03;1.17;;;23.20;99.90;;;;;;5051317;28;20021;-58
2023/07/12 12:54:23;;;;;;;2.08;0.95;;;23.40;99.90;;;;;;5051084;28;20442;-58
2023/07/12 12:56:51;;;;;;;2.53;1.17;;;23.20;99.90;;;;;;5052314;28;20075;-56